sensor_id;sensor_type;location;lat;lon;timestamp;pressure;altitude;pressure_sealevel;temperature;humidity
10720;BME280;5411;58.386;15.560;2023-04-28T00:00:31;100344.31;;;2.52;95.54
10720;BME280;5411;58.386;15.560;2023-04-28T00:03:00;100339.78;;;2.44;96.04
10720;BME280;5411;58.386;15.560;2023-04-28T00:05:29;100349.22;;;2.46;96.05
10720;BME280;5411;58.386;15.560;2023-04-28T00:07:58;100355.63;;;2.44;96.17
10720;BME280;5411;58.386;15.560;2023-04-28T00:10:26;100350.13;;;2.37;96.95
10720;BME280;5411;58.386;15.560;2023-04-28T00:12:57;100359.72;;;2.38;97.95
10720;BME280;5411;58.386;15.560;2023-04-28T00:15:26;100354.03;;;2.33;97.74
10720;BME280;5411;58.386;15.560;2023-04-28T00:17:54;100366.66;;;2.39;98.47
10720;BME280;5411;58.386;15.560;2023-04-28T00:20:24;100360.69;;;2.37;98.61
10720;BME280;5411;58.386;15.560;2023-04-28T00:22:53;100362.50;;;2.37;97.93
10720;BME280;5411;58.386;15.560;2023-04-28T00:25:33;100366.94;;;2.36;98.65
10720;BME280;5411;58.386;15.560;2023-04-28T00:28:03;100367.78;;;2.37;98.26
10720;BME280;5411;58.386;15.560;2023-04-28T00:30:34;100358.88;;;2.38;98.48
10720;BME280;5411;58.386;15.560;2023-04-28T00:33:03;100354.03;;;2.33;97.77
10720;BME280;5411;58.386;15.560;2023-04-28T00:35:34;100365.97;;;2.37;98.41
10720;BME280;5411;58.386;15.560;2023-04-28T00:38:11;100365.13;;;2.37;98.64
10720;BME280;5411;58.386;15.560;2023-04-28T00:40:39;100363.47;;;2.36;98.15
10720;BME280;5411;58.386;15.560;2023-04-28T00:43:09;100364.59;;;2.33;98.56
10720;BME280;5411;58.386;15.560;2023-04-28T00:45:38;100372.06;;;2.38;98.89
10720;BME280;5411;58.386;15.560;2023-04-28T00:48:06;100372.22;;;2.36;98.33
10720;BME280;5411;58.386;15.560;2023-04-28T00:50:37;100375.84;;;2.35;99.04
10720;BME280;5411;58.386;15.560;2023-04-28T00:53:05;100377.50;;;2.36;99.39
10720;BME280;5411;58.386;15.560;2023-04-28T00:55:34;100374.47;;;2.31;99.45
10720;BME280;5411;58.386;15.560;2023-04-28T00:58:03;100374.72;;;2.38;99.97
10720;BME280;5411;58.386;15.560;2023-04-28T01:00:32;100389.41;;;2.40;99.29
10720;BME280;5411;58.386;15.560;2023-04-28T01:03:00;100387.91;;;2.38;99.87
10720;BME280;5411;58.386;15.560;2023-04-28T01:05:32;100392.22;;;2.39;100.00
10720;BME280;5411;58.386;15.560;2023-04-28T01:08:02;100395.69;;;2.39;100.00
10720;BME280;5411;58.386;15.560;2023-04-28T01:10:31;100383.06;;;2.33;99.82
10720;BME280;5411;58.386;15.560;2023-04-28T01:13:01;100393.06;;;2.39;99.68
10720;BME280;5411;58.386;15.560;2023-04-28T01:15:29;100396.66;;;2.38;99.40
10720;BME280;5411;58.386;15.560;2023-04-28T01:17:58;100405.56;;;2.37;100.00
10720;BME280;5411;58.386;15.560;2023-04-28T01:20:29;100399.59;;;2.35;100.00
10720;BME280;5411;58.386;15.560;2023-04-28T01:22:57;100397.78;;;2.36;99.61
10720;BME280;5411;58.386;15.560;2023-04-28T01:25:30;100405.03;;;2.34;99.74
10720;BME280;5411;58.386;15.560;2023-04-28T01:28:00;100409.47;;;2.33;99.62
10720;BME280;5411;58.386;15.560;2023-04-28T01:30:29;100406.97;;;2.32;100.00
10720;BME280;5411;58.386;15.560;2023-04-28T01:32:57;100402.31;;;2.26;100.00
10720;BME280;5411;58.386;15.560;2023-04-28T01:35:27;100405.59;;;2.28;100.00
10720;BME280;5411;58.386;15.560;2023-04-28T01:37:56;100406.75;;;2.25;100.00
10720;BME280;5411;58.386;15.560;2023-04-28T01:40:36;100406.22;;;2.22;100.00
10720;BME280;5411;58.386;15.560;2023-04-28T01:43:04;100407.63;;;2.16;100.00
10720;BME280;5411;58.386;15.560;2023-04-28T01:45:32;100415.53;;;2.16;100.00
10720;BME280;5411;58.386;15.560;2023-04-28T01:48:04;100425.59;;;2.12;100.00
10720;BME280;5411;58.386;15.560;2023-04-28T01:50:32;100416.16;;;2.10;100.00
10720;BME280;5411;58.386;15.560;2023-04-28T01:53:01;100418.78;;;2.10;100.00
10720;BME280;5411;58.386;15.560;2023-04-28T01:55:33;100416.56;;;2.05;100.00
10720;BME280;5411;58.386;15.560;2023-04-28T01:58:01;100429.47;;;2.08;100.00
10720;BME280;5411;58.386;15.560;2023-04-28T02:00:32;100412.56;;;2.01;100.00
10720;BME280;5411;58.386;15.560;2023-04-28T02:03:03;100417.31;;;1.98;100.00
10720;BME280;5411;58.386;15.560;2023-04-28T02:05:32;100426.06;;;1.98;100.00
10720;BME280;5411;58.386;15.560;2023-04-28T02:08:00;100433.53;;;2.03;100.00
10720;BME280;5411;58.386;15.560;2023-04-28T02:10:28;100425.88;;;2.00;100.00
10720;BME280;5411;58.386;15.560;2023-04-28T02:12:58;100419.81;;;1.99;100.00
10720;BME280;5411;58.386;15.560;2023-04-28T02:15:26;100428.53;;;2.00;100.00
10720;BME280;5411;58.386;15.560;2023-04-28T02:18:01;100427.72;;;1.99;100.00
10720;BME280;5411;58.386;15.560;2023-04-28T02:20:29;100428.53;;;2.00;100.00
10720;BME280;5411;58.386;15.560;2023-04-28T02:22:59;100430.38;;;1.99;100.00
10720;BME280;5411;58.386;15.560;2023-04-28T02:25:27;100439.06;;;2.00;100.00
10720;BME280;5411;58.386;15.560;2023-04-28T02:28:05;100422.47;;;1.90;100.00
10720;BME280;5411;58.386;15.560;2023-04-28T02:30:33;100431.91;;;1.92;100.00
10720;BME280;5411;58.386;15.560;2023-04-28T02:33:03;100442.47;;;1.92;100.00
10720;BME280;5411;58.386;15.560;2023-04-28T02:35:36;100437.19;;;1.92;100.00
10720;BME280;5411;58.386;15.560;2023-04-28T02:38:06;100439.41;;;1.87;100.00
10720;BME280;5411;58.386;15.560;2023-04-28T02:40:35;100446.66;;;1.85;100.00
10720;BME280;5411;58.386;15.560;2023-04-28T02:43:05;100445.00;;;1.84;100.00
10720;BME280;5411;58.386;15.560;2023-04-28T02:45:36;100446.94;;;1.82;100.00
10720;BME280;5411;58.386;15.560;2023-04-28T02:48:04;100451.53;;;1.80;100.00
10720;BME280;5411;58.386;15.560;2023-04-28T02:50:34;100454.31;;;1.78;100.00
10720;BME280;5411;58.386;15.560;2023-04-28T02:53:02;100445.56;;;1.78;100.00
10720;BME280;5411;58.386;15.560;2023-04-28T02:55:31;100447.50;;;1.76;100.00
10720;BME280;5411;58.386;15.560;2023-04-28T02:58:02;100444.19;;;1.74;100.00
10720;BME280;5411;58.386;15.560;2023-04-28T03:00:32;100455.88;;;1.71;100.00
10720;BME280;5411;58.386;15.560;2023-04-28T03:03:00;100460.44;;;1.69;100.00
10720;BME280;5411;58.386;15.560;2023-04-28T03:05:29;100454.63;;;1.66;100.00
10720;BME280;5411;58.386;15.560;2023-04-28T03:07:58;100468.22;;;1.71;100.00
10720;BME280;5411;58.386;15.560;2023-04-28T03:10:26;100456.16;;;1.68;100.00
10720;BME280;5411;58.386;15.560;2023-04-28T03:12:55;100460.59;;;1.68;100.00
10720;BME280;5411;58.386;15.560;2023-04-28T03:15:23;100463.22;;;1.68;100.00
10720;BME280;5411;58.386;15.560;2023-04-28T03:17:53;100469.34;;;1.68;100.00
10720;BME280;5411;58.386;15.560;2023-04-28T03:20:25;100458.50;;;1.62;100.00
10720;BME280;5411;58.386;15.560;2023-04-28T03:22:55;100454.78;;;1.64;100.00
10720;BME280;5411;58.386;15.560;2023-04-28T03:25:25;100451.84;;;1.67;100.00
10720;BME280;5411;58.386;15.560;2023-04-28T03:27:54;100450.06;;;1.68;100.00
10720;BME280;5411;58.386;15.560;2023-04-28T03:30:24;100455.31;;;1.68;100.00
10720;BME280;5411;58.386;15.560;2023-04-28T03:32:54;100450.47;;;1.73;100.00
10720;BME280;5411;58.386;15.560;2023-04-28T03:35:25;100458.63;;;1.79;100.00
10720;BME280;5411;58.386;15.560;2023-04-28T03:37:55;100459.53;;;1.88;100.00
10720;BME280;5411;58.386;15.560;2023-04-28T03:40:24;100451.91;;;1.95;100.00
10720;BME280;5411;58.386;15.560;2023-04-28T03:42:52;100450.59;;;2.08;100.00
10720;BME280;5411;58.386;15.560;2023-04-28T03:45:23;100457.75;;;2.16;100.00
10720;BME280;5411;58.386;15.560;2023-04-28T03:47:56;100455.38;;;2.23;100.00
10720;BME280;5411;58.386;15.560;2023-04-28T03:50:25;100453.13;;;2.28;100.00
10720;BME280;5411;58.386;15.560;2023-04-28T03:52:55;100458.50;;;2.36;100.00
10720;BME280;5411;58.386;15.560;2023-04-28T03:55:24;100460.53;;;2.42;99.99
10720;BME280;5411;58.386;15.560;2023-04-28T03:57:52;100464.56;;;2.46;100.00
10720;BME280;5411;58.386;15.560;2023-04-28T04:00:24;100462.16;;;2.53;100.00
10720;BME280;5411;58.386;15.560;2023-04-28T04:02:57;100460.50;;;2.52;100.00
10720;BME280;5411;58.386;15.560;2023-04-28T04:05:25;100471.28;;;2.58;100.00
10720;BME280;5411;58.386;15.560;2023-04-28T04:07:54;100454.75;;;2.56;99.54
10720;BME280;5411;58.386;15.560;2023-04-28T04:10:23;100467.66;;;2.59;100.00
10720;BME280;5411;58.386;15.560;2023-04-28T04:12:51;100466.53;;;2.62;100.00
10720;BME280;5411;58.386;15.560;2023-04-28T04:15:21;100470.09;;;2.70;99.67
10720;BME280;5411;58.386;15.560;2023-04-28T04:17:50;100467.84;;;2.75;99.27
10720;BME280;5411;58.386;15.560;2023-04-28T04:20:20;100477.78;;;2.81;99.53
10720;BME280;5411;58.386;15.560;2023-04-28T04:22:49;100479.59;;;2.81;99.71
10720;BME280;5411;58.386;15.560;2023-04-28T04:25:17;100482.50;;;2.88;99.96
10720;BME280;5411;58.386;15.560;2023-04-28T04:27:49;100475.75;;;2.93;99.23
10720;BME280;5411;58.386;15.560;2023-04-28T04:30:17;100477.97;;;2.98;99.42
10720;BME280;5411;58.386;15.560;2023-04-28T04:32:45;100472.66;;;2.98;99.49
10720;BME280;5411;58.386;15.560;2023-04-28T04:35:20;100474.72;;;3.04;99.16
10720;BME280;5411;58.386;15.560;2023-04-28T04:37:51;100478.94;;;3.14;99.69
10720;BME280;5411;58.386;15.560;2023-04-28T04:40:27;100489.72;;;3.21;99.36
10720;BME280;5411;58.386;15.560;2023-04-28T04:42:57;100494.41;;;3.27;99.14
10720;BME280;5411;58.386;15.560;2023-04-28T04:45:25;100485.84;;;3.33;99.18
10720;BME280;5411;58.386;15.560;2023-04-28T04:47:54;100483.59;;;3.38;99.16
10720;BME280;5411;58.386;15.560;2023-04-28T04:50:23;100492.41;;;3.47;99.21
10720;BME280;5411;58.386;15.560;2023-04-28T04:52:53;100500.28;;;3.56;99.45
10720;BME280;5411;58.386;15.560;2023-04-28T04:55:26;100496.31;;;3.61;99.23
10720;BME280;5411;58.386;15.560;2023-04-28T04:57:55;100499.56;;;3.72;98.95
10720;BME280;5411;58.386;15.560;2023-04-28T05:00:26;100508.97;;;3.75;99.38
10720;BME280;5411;58.386;15.560;2023-04-28T05:02:55;100504.06;;;3.80;98.75
10720;BME280;5411;58.386;15.560;2023-04-28T05:05:24;100512.41;;;3.93;99.41
10720;BME280;5411;58.386;15.560;2023-04-28T05:07:56;100509.16;;;3.99;98.93
10720;BME280;5411;58.386;15.560;2023-04-28T05:10:25;100503.59;;;4.10;99.37
10720;BME280;5411;58.386;15.560;2023-04-28T05:12:53;100503.78;;;4.17;98.33
10720;BME280;5411;58.386;15.560;2023-04-28T05:15:21;100508.31;;;4.33;98.21
10720;BME280;5411;58.386;15.560;2023-04-28T05:17:50;100502.88;;;4.42;98.76
10720;BME280;5411;58.386;15.560;2023-04-28T05:20:22;100504.09;;;4.48;98.28
10720;BME280;5411;58.386;15.560;2023-04-28T05:22:50;100506.28;;;4.60;97.65
10720;BME280;5411;58.386;15.560;2023-04-28T05:25:23;100499.50;;;4.66;97.67
10720;BME280;5411;58.386;15.560;2023-04-28T05:27:53;100523.56;;;4.81;97.17
10720;BME280;5411;58.386;15.560;2023-04-28T05:30:22;100515.81;;;4.87;95.75
10720;BME280;5411;58.386;15.560;2023-04-28T05:32:55;100511.34;;;4.96;95.89
10720;BME280;5411;58.386;15.560;2023-04-28T05:35:24;100510.03;;;5.08;95.90
10720;BME280;5411;58.386;15.560;2023-04-28T05:37:53;100510.06;;;5.24;95.11
10720;BME280;5411;58.386;15.560;2023-04-28T05:40:25;100514.56;;;5.32;94.98
10720;BME280;5411;58.386;15.560;2023-04-28T05:42:57;100513.69;;;5.48;93.78
10720;BME280;5411;58.386;15.560;2023-04-28T05:45:25;100510.22;;;5.63;93.20
10720;BME280;5411;58.386;15.560;2023-04-28T05:47:54;100517.34;;;5.79;93.29
10720;BME280;5411;58.386;15.560;2023-04-28T05:50:22;100515.84;;;5.93;90.47
10720;BME280;5411;58.386;15.560;2023-04-28T05:52:52;100510.22;;;5.96;87.91
10720;BME280;5411;58.386;15.560;2023-04-28T05:55:24;100520.63;;;6.05;86.74
10720;BME280;5411;58.386;15.560;2023-04-28T05:57:55;100513.47;;;6.14;87.00
10720;BME280;5411;58.386;15.560;2023-04-28T06:00:26;100515.41;;;6.28;85.16
10720;BME280;5411;58.386;15.560;2023-04-28T06:02:54;100518.22;;;6.35;79.54
10720;BME280;5411;58.386;15.560;2023-04-28T06:05:23;100520.19;;;6.41;79.93
10720;BME280;5411;58.386;15.560;2023-04-28T06:07:52;100518.81;;;6.53;80.32
10720;BME280;5411;58.386;15.560;2023-04-28T06:10:21;100517.47;;;6.57;76.78
10720;BME280;5411;58.386;15.560;2023-04-28T06:12:54;100519.78;;;6.60;77.63
10720;BME280;5411;58.386;15.560;2023-04-28T06:15:22;100516.41;;;6.66;75.30
10720;BME280;5411;58.386;15.560;2023-04-28T06:17:51;100527.38;;;6.71;73.31
10720;BME280;5411;58.386;15.560;2023-04-28T06:20:27;100523.72;;;6.72;72.69
10720;BME280;5411;58.386;15.560;2023-04-28T06:22:56;100520.38;;;6.78;72.95
10720;BME280;5411;58.386;15.560;2023-04-28T06:25:25;100531.63;;;6.80;71.77
10720;BME280;5411;58.386;15.560;2023-04-28T06:27:54;100529.97;;;6.79;73.08
10720;BME280;5411;58.386;15.560;2023-04-28T06:30:25;100527.81;;;6.83;72.81
10720;BME280;5411;58.386;15.560;2023-04-28T06:32:54;100533.63;;;6.87;72.02
10720;BME280;5411;58.386;15.560;2023-04-28T06:35:23;100532.44;;;6.89;71.81
10720;BME280;5411;58.386;15.560;2023-04-28T06:37:53;100533.88;;;7.00;72.43
10720;BME280;5411;58.386;15.560;2023-04-28T06:40:22;100533.34;;;7.04;72.61
10720;BME280;5411;58.386;15.560;2023-04-28T06:42:51;100527.03;;;7.05;71.41
10720;BME280;5411;58.386;15.560;2023-04-28T06:45:22;100523.47;;;7.13;70.80
10720;BME280;5411;58.386;15.560;2023-04-28T06:47:52;100533.88;;;7.23;72.83
10720;BME280;5411;58.386;15.560;2023-04-28T06:50:22;100531.13;;;7.39;73.40
10720;BME280;5411;58.386;15.560;2023-04-28T06:52:53;100523.34;;;7.52;71.18
10720;BME280;5411;58.386;15.560;2023-04-28T06:55:22;100526.72;;;7.69;71.18
10720;BME280;5411;58.386;15.560;2023-04-28T06:57:50;100534.28;;;7.80;68.81
10720;BME280;5411;58.386;15.560;2023-04-28T07:00:19;100528.03;;;7.87;67.79
10720;BME280;5411;58.386;15.560;2023-04-28T07:02:49;100529.63;;;7.97;65.07
10720;BME280;5411;58.386;15.560;2023-04-28T07:05:19;100528.69;;;8.04;65.42
10720;BME280;5411;58.386;15.560;2023-04-28T07:07:48;100528.91;;;8.17;64.73
10720;BME280;5411;58.386;15.560;2023-04-28T07:10:17;100533.13;;;8.27;63.63
10720;BME280;5411;58.386;15.560;2023-04-28T07:12:45;100531.03;;;8.22;63.00
10720;BME280;5411;58.386;15.560;2023-04-28T07:15:14;100528.63;;;8.27;62.27
10720;BME280;5411;58.386;15.560;2023-04-28T07:17:43;100528.25;;;8.30;60.65
10720;BME280;5411;58.386;15.560;2023-04-28T07:20:13;100532.56;;;8.31;59.75
10720;BME280;5411;58.386;15.560;2023-04-28T07:22:42;100536.94;;;8.32;59.88
10720;BME280;5411;58.386;15.560;2023-04-28T07:25:10;100531.59;;;8.32;59.02
10720;BME280;5411;58.386;15.560;2023-04-28T07:27:39;100541.91;;;8.35;59.34
10720;BME280;5411;58.386;15.560;2023-04-28T07:30:10;100538.59;;;8.33;57.78
10720;BME280;5411;58.386;15.560;2023-04-28T07:32:54;100530.31;;;8.43;58.27
10720;BME280;5411;58.386;15.560;2023-04-28T07:35:26;100528.75;;;8.48;57.41
10720;BME280;5411;58.386;15.560;2023-04-28T07:37:55;100525.72;;;8.51;56.07
10720;BME280;5411;58.386;15.560;2023-04-28T07:40:24;100531.50;;;8.55;56.57
10720;BME280;5411;58.386;15.560;2023-04-28T07:42:52;100529.38;;;8.65;57.71
10720;BME280;5411;58.386;15.560;2023-04-28T07:45:23;100528.34;;;8.66;58.24
10720;BME280;5411;58.386;15.560;2023-04-28T07:47:55;100536.91;;;8.76;57.79
10720;BME280;5411;58.386;15.560;2023-04-28T07:50:26;100532.66;;;8.82;56.66
10720;BME280;5411;58.386;15.560;2023-04-28T07:52:55;100538.63;;;8.84;55.07
10720;BME280;5411;58.386;15.560;2023-04-28T07:55:25;100541.00;;;8.79;54.73
10720;BME280;5411;58.386;15.560;2023-04-28T07:57:59;100539.81;;;8.81;54.13
10720;BME280;5411;58.386;15.560;2023-04-28T08:00:30;100542.78;;;8.86;54.27
10720;BME280;5411;58.386;15.560;2023-04-28T08:02:58;100535.97;;;8.84;53.24
10720;BME280;5411;58.386;15.560;2023-04-28T08:05:28;100538.25;;;8.87;53.50
10720;BME280;5411;58.386;15.560;2023-04-28T08:07:58;100534.59;;;8.88;52.19
10720;BME280;5411;58.386;15.560;2023-04-28T08:10:27;100542.59;;;8.88;52.27
10720;BME280;5411;58.386;15.560;2023-04-28T08:12:55;100546.00;;;8.82;51.88
10720;BME280;5411;58.386;15.560;2023-04-28T08:15:24;100538.72;;;8.90;51.80
10720;BME280;5411;58.386;15.560;2023-04-28T08:17:53;100553.22;;;9.03;51.61
10720;BME280;5411;58.386;15.560;2023-04-28T08:20:21;100539.44;;;8.99;50.47
10720;BME280;5411;58.386;15.560;2023-04-28T08:22:52;100564.09;;;9.01;50.01
10720;BME280;5411;58.386;15.560;2023-04-28T08:25:20;100546.69;;;9.05;50.60
10720;BME280;5411;58.386;15.560;2023-04-28T08:27:49;100551.25;;;9.11;52.17
10720;BME280;5411;58.386;15.560;2023-04-28T08:30:17;100544.16;;;9.18;51.67
10720;BME280;5411;58.386;15.560;2023-04-28T08:32:55;100551.22;;;9.26;52.57
10720;BME280;5411;58.386;15.560;2023-04-28T08:35:26;100549.66;;;9.32;52.98
10720;BME280;5411;58.386;15.560;2023-04-28T08:37:56;100550.19;;;9.48;51.44
10720;BME280;5411;58.386;15.560;2023-04-28T08:40:25;100544.94;;;9.55;51.49
10720;BME280;5411;58.386;15.560;2023-04-28T08:42:55;100540.47;;;9.62;51.69
10720;BME280;5411;58.386;15.560;2023-04-28T08:45:24;100544.22;;;9.68;52.72
10720;BME280;5411;58.386;15.560;2023-04-28T08:47:57;100542.41;;;9.75;52.75
10720;BME280;5411;58.386;15.560;2023-04-28T08:50:29;100540.66;;;9.82;50.02
10720;BME280;5411;58.386;15.560;2023-04-28T08:53:01;100551.56;;;9.87;50.16
10720;BME280;5411;58.386;15.560;2023-04-28T08:55:33;100541.69;;;9.87;50.58
10720;BME280;5411;58.386;15.560;2023-04-28T08:58:02;100548.38;;;9.98;50.28
10720;BME280;5411;58.386;15.560;2023-04-28T09:00:32;100550.66;;;10.01;47.33
10720;BME280;5411;58.386;15.560;2023-04-28T09:03:04;100539.38;;;10.06;48.00
10720;BME280;5411;58.386;15.560;2023-04-28T09:05:38;100544.75;;;10.12;48.25
10720;BME280;5411;58.386;15.560;2023-04-28T09:08:08;100543.53;;;10.08;48.16
10720;BME280;5411;58.386;15.560;2023-04-28T09:11:05;100552.41;;;10.15;48.69
10720;BME280;5411;58.386;15.560;2023-04-28T09:13:35;100538.63;;;10.12;48.67
10720;BME280;5411;58.386;15.560;2023-04-28T09:16:04;100545.19;;;10.16;47.53
10720;BME280;5411;58.386;15.560;2023-04-28T09:18:33;100541.16;;;10.20;47.33
10720;BME280;5411;58.386;15.560;2023-04-28T09:21:02;100551.88;;;10.26;46.41
10720;BME280;5411;58.386;15.560;2023-04-28T09:23:34;100549.66;;;10.30;45.31
10720;BME280;5411;58.386;15.560;2023-04-28T09:26:03;100551.94;;;10.33;44.46
10720;BME280;5411;58.386;15.560;2023-04-28T09:28:34;100548.00;;;10.29;44.91
10720;BME280;5411;58.386;15.560;2023-04-28T09:31:03;100551.97;;;10.40;44.69
10720;BME280;5411;58.386;15.560;2023-04-28T09:33:31;100551.00;;;10.47;46.51
10720;BME280;5411;58.386;15.560;2023-04-28T09:36:00;100548.31;;;10.47;46.77
10720;BME280;5411;58.386;15.560;2023-04-28T09:38:29;100544.00;;;10.53;44.28
10720;BME280;5411;58.386;15.560;2023-04-28T09:41:01;100561.50;;;10.49;43.56
10720;BME280;5411;58.386;15.560;2023-04-28T09:43:31;100545.25;;;10.50;45.56
10720;BME280;5411;58.386;15.560;2023-04-28T09:46:01;100536.22;;;10.58;46.32
10720;BME280;5411;58.386;15.560;2023-04-28T09:48:30;100537.94;;;10.72;44.59
10720;BME280;5411;58.386;15.560;2023-04-28T09:51:00;100545.72;;;10.67;43.64
10720;BME280;5411;58.386;15.560;2023-04-28T09:53:29;100530.09;;;10.64;45.27
10720;BME280;5411;58.386;15.560;2023-04-28T09:56:02;100546.16;;;10.70;44.27
10720;BME280;5411;58.386;15.560;2023-04-28T09:58:33;100544.06;;;10.66;43.56
10720;BME280;5411;58.386;15.560;2023-04-28T10:01:32;100552.44;;;10.50;43.02
10720;BME280;5411;58.386;15.560;2023-04-28T10:04:04;100547.94;;;10.50;43.56
10720;BME280;5411;58.386;15.560;2023-04-28T10:06:35;100544.22;;;10.51;43.89
10720;BME280;5411;58.386;15.560;2023-04-28T10:09:04;100545.47;;;10.55;44.88
10720;BME280;5411;58.386;15.560;2023-04-28T10:11:35;100557.81;;;10.56;45.81
10720;BME280;5411;58.386;15.560;2023-04-28T10:14:05;100544.00;;;10.53;44.23
10720;BME280;5411;58.386;15.560;2023-04-28T10:16:33;100542.22;;;10.60;43.26
10720;BME280;5411;58.386;15.560;2023-04-28T10:19:02;100538.06;;;10.51;43.80
10720;BME280;5411;58.386;15.560;2023-04-28T10:21:36;100550.06;;;10.68;43.88
10720;BME280;5411;58.386;15.560;2023-04-28T10:24:09;100553.34;;;10.63;42.44
10720;BME280;5411;58.386;15.560;2023-04-28T10:27:03;100551.91;;;10.67;43.69
10720;BME280;5411;58.386;15.560;2023-04-28T10:29:33;100541.44;;;10.73;43.74
10720;BME280;5411;58.386;15.560;2023-04-28T10:32:15;100543.72;;;10.76;43.93
10720;BME280;5411;58.386;15.560;2023-04-28T10:34:44;100539.59;;;10.80;43.40
10720;BME280;5411;58.386;15.560;2023-04-28T10:37:13;100557.38;;;10.94;42.60
10720;BME280;5411;58.386;15.560;2023-04-28T10:42:55;100550.22;;;11.07;42.54
10720;BME280;5411;58.386;15.560;2023-04-28T10:46:00;100547.53;;;11.07;42.12
10720;BME280;5411;58.386;15.560;2023-04-28T10:48:55;100551.91;;;11.15;43.00
10720;BME280;5411;58.386;15.560;2023-04-28T10:51:28;100561.16;;;11.19;42.11
10720;BME280;5411;58.386;15.560;2023-04-28T10:54:14;100559.75;;;11.17;42.38
10720;BME280;5411;58.386;15.560;2023-04-28T10:57:18;100551.69;;;11.23;42.69
10720;BME280;5411;58.386;15.560;2023-04-28T10:59:50;100553.97;;;11.26;41.20
10720;BME280;5411;58.386;15.560;2023-04-28T11:02:45;100567.41;;;11.39;40.42
10720;BME280;5411;58.386;15.560;2023-04-28T11:05:16;100561.44;;;11.37;40.67
10720;BME280;5411;58.386;15.560;2023-04-28T11:11:20;100571.31;;;11.37;40.06
10720;BME280;5411;58.386;15.560;2023-04-28T11:13:50;100561.63;;;11.36;40.98
10720;BME280;5411;58.386;15.560;2023-04-28T11:16:46;100562.44;;;11.30;40.77
10720;BME280;5411;58.386;15.560;2023-04-28T11:19:28;100557.28;;;11.35;40.98
10720;BME280;5411;58.386;15.560;2023-04-28T11:22:01;100567.41;;;11.46;40.05
10720;BME280;5411;58.386;15.560;2023-04-28T11:24:32;100561.22;;;11.46;39.87
10720;BME280;5411;58.386;15.560;2023-04-28T11:27:00;100563.09;;;11.45;40.69
10720;BME280;5411;58.386;15.560;2023-04-28T11:29:32;100561.88;;;11.54;39.96
10720;BME280;5411;58.386;15.560;2023-04-28T11:32:03;100574.88;;;11.57;38.13
10720;BME280;5411;58.386;15.560;2023-04-28T11:34:32;100565.78;;;11.65;39.26
10720;BME280;5411;58.386;15.560;2023-04-28T11:37:00;100557.53;;;11.73;39.12
10720;BME280;5411;58.386;15.560;2023-04-28T11:39:31;100557.97;;;11.70;39.22
10720;BME280;5411;58.386;15.560;2023-04-28T11:42:01;100557.78;;;11.71;39.70
10720;BME280;5411;58.386;15.560;2023-04-28T11:44:30;100562.75;;;11.81;41.00
10720;BME280;5411;58.386;15.560;2023-04-28T11:47:03;100572.63;;;11.87;39.88
10720;BME280;5411;58.386;15.560;2023-04-28T11:49:41;100576.78;;;11.90;37.74
10720;BME280;5411;58.386;15.560;2023-04-28T11:52:10;100555.53;;;11.88;37.29
10720;BME280;5411;58.386;15.560;2023-04-28T11:54:38;100568.31;;;11.99;38.48
10720;BME280;5411;58.386;15.560;2023-04-28T11:57:16;100562.94;;;11.99;38.48
10720;BME280;5411;58.386;15.560;2023-04-28T11:59:45;100562.94;;;12.06;38.03
10720;BME280;5411;58.386;15.560;2023-04-28T12:02:23;100579.47;;;12.09;38.34
10720;BME280;5411;58.386;15.560;2023-04-28T12:04:54;100555.31;;;12.03;37.80
10720;BME280;5411;58.386;15.560;2023-04-28T12:07:40;100569.53;;;12.03;38.02
10720;BME280;5411;58.386;15.560;2023-04-28T12:10:10;100567.69;;;12.04;36.92
10720;BME280;5411;58.386;15.560;2023-04-28T12:12:40;100562.94;;;11.99;37.11
10720;BME280;5411;58.386;15.560;2023-04-28T12:15:11;100570.16;;;12.12;37.65
10720;BME280;5411;58.386;15.560;2023-04-28T12:17:41;100570.16;;;12.19;36.71
10720;BME280;5411;58.386;15.560;2023-04-28T12:20:12;100564.78;;;12.12;36.62
10720;BME280;5411;58.386;15.560;2023-04-28T12:23:00;100564.97;;;12.30;37.03
10720;BME280;5411;58.386;15.560;2023-04-28T12:25:32;100564.38;;;12.35;36.81
10720;BME280;5411;58.386;15.560;2023-04-28T12:28:03;100559.78;;;12.42;37.33
10720;BME280;5411;58.386;15.560;2023-04-28T12:30:35;100568.22;;;12.52;36.94
10720;BME280;5411;58.386;15.560;2023-04-28T12:33:20;100560.19;;;12.59;37.00
10720;BME280;5411;58.386;15.560;2023-04-28T12:35:49;100572.34;;;12.61;36.45
10720;BME280;5411;58.386;15.560;2023-04-28T12:38:19;100562.69;;;12.47;35.66
10720;BME280;5411;58.386;15.560;2023-04-28T12:40:48;100560.22;;;12.45;36.31
10720;BME280;5411;58.386;15.560;2023-04-28T12:43:16;100557.72;;;12.44;35.00
10720;BME280;5411;58.386;15.560;2023-04-28T12:45:44;100565.56;;;12.39;35.54
10720;BME280;5411;58.386;15.560;2023-04-28T12:48:15;100549.88;;;12.42;36.11
10720;BME280;5411;58.386;15.560;2023-04-28T12:50:43;100556.09;;;12.36;35.02
10720;BME280;5411;58.386;15.560;2023-04-28T12:53:11;100555.69;;;12.26;35.13
10720;BME280;5411;58.386;15.560;2023-04-28T12:55:40;100549.09;;;12.29;36.49
10720;BME280;5411;58.386;15.560;2023-04-28T12:58:09;100542.91;;;12.28;35.74
10720;BME280;5411;58.386;15.560;2023-04-28T13:00:37;100552.38;;;12.31;35.16
10720;BME280;5411;58.386;15.560;2023-04-28T13:03:07;100553.63;;;12.28;35.49
10720;BME280;5411;58.386;15.560;2023-04-28T13:05:37;100541.47;;;12.19;35.35
10720;BME280;5411;58.386;15.560;2023-04-28T13:08:06;100554.03;;;12.25;35.09
10720;BME280;5411;58.386;15.560;2023-04-28T13:10:34;100546.00;;;12.25;34.84
10720;BME280;5411;58.386;15.560;2023-04-28T13:13:02;100544.75;;;12.34;35.06
10720;BME280;5411;58.386;15.560;2023-04-28T13:15:31;100541.88;;;12.36;34.60
10720;BME280;5411;58.386;15.560;2023-04-28T13:17:59;100540.59;;;12.45;34.39
10720;BME280;5411;58.386;15.560;2023-04-28T13:20:28;100539.81;;;12.38;34.30